LTAI Airport Information

Runway Information
Runway 18C Length 11155 ft width 148 ft
Elevation 176 ft Threshold 0 ft Heading 186
Runway 36C Length 11155 ft Width 148 ft
Elevation 176 ft Threshold 0 ft Heading 6
Runway 18L Length 11155 ft width 148 ft
Elevation 176 ft Threshold 0 ft Heading 186
Runway 36R Length 11155 ft Width 148 ft
Elevation 158 ft Threshold 0 ft Heading 6
Runway 18R Length 9811 ft width 148 ft
Elevation 172 ft Threshold 0 ft Heading 186
Runway 36L Length 9811 ft Width 148 ft
Elevation 176 ft Threshold 0 ft Heading 6
Airport Frequencies
Type APP Name upper Frequency 122.05 MHZ
Type Approach Name arrival Frequency 119.65 MHZ
Type ATIS Name ATIS Frequency 118.275 MHZ
Type CLD Name CLNC DEL Frequency 123.175 MHZ
Type GND Name GND Frequency 121.9 MHZ
Type TWR Name TWR east Frequency 125 MHZ
Type TWR Name TWR west Frequency 126.1 MHZ
Airport Navaids
Type DME Name Antalya Frequency 109100 KHZ
Type TACAN Name Antalya Frequency 115500 KHZ
Type VOR-DME Name Antalya Frequency 114000 KHZ
Type NDB Name Antalya Frequency 413 KHZ
Type VOR-DME Name Lara Frequency 113600 KHZ
Type NDB Name Antalya Frequency 302 KHZ
Airport Weather Information & NOTAM
ADDS - METARS form results

(2001 UTC 22 July 2018)
 
METAR text: LTAI 221950Z 34011KT 260V350 CAVOK 35/11 Q1004 NOSIG RMK RWY18C 33011KT 280V350 RWY36R 33014KT RWY18L 32012KT
Conditions at: LTAI (ANTALYA (CIV/MIL, TR) observed 1950 UTC 22 July 2018
Temperature: 35.0°C (95°F)
Dewpoint: 11.0°C (52°F) [RH = 23%]
Pressure (altimeter): 29.65 inches Hg (1004.0 mb)
Winds: from the NNW (340 degrees) at 13 MPH (11 knots; 5.7 m/s)
Visibility: 6 or more miles (10+ km)
Ceiling: ceiling and visibility are OK
Clouds: unknown
Weather: no significant weather observed at this time

METAR text: LTAI 221920Z 31009KT CAVOK 34/10 Q1004 NOSIG RMK RWY18C 32010KT RWY36R 31010KT RWY18L 33010KT
Conditions at: LTAI (ANTALYA (CIV/MIL, TR) observed 1920 UTC 22 July 2018
Temperature: 34.0°C (93°F)
Dewpoint: 10.0°C (50°F) [RH = 23%]
Pressure (altimeter): 29.65 inches Hg (1004.0 mb)
Winds: from the NW (310 degrees) at 10 MPH (9 knots; 4.7 m/s)
Visibility: 6 or more miles (10+ km)
Ceiling: ceiling and visibility are OK
Clouds: unknown
Weather: no significant weather observed at this time